This is the latest recevied weather packets stored in our database for station/object KCXW. If no packets are shown the sender has not sent any weather packets the latest 10 day(s).
| Time | Temp. | Humidity | Pressure | Rain* | Wind** | Luminosity | Snow |
|---|---|---|---|---|---|---|---|
| 1777349007 | 25.56° C | 100% | 1009.8 hPa | - | - | - | - |
| 1777348409 | 25.56° C | 100% | 1009.8 hPa | - | - | - | - |
| 1777347809 | 25.56° C | 100% | 1009.8 hPa | - | - | - | - |
| 1777347208 | 25.56° C | 100% | 1009.5 hPa | - | - | - | - |
| 1777346608 | 25.56° C | 100% | 1009.5 hPa | - | - | - | - |
| 1777346007 | 25.56° C | 100% | 1009.5 hPa | - | - | - | - |
| 1777345409 | 25.56° C | 100% | 1009.5 hPa | - | - | - | - |
| 1777344812 | 25.56° C | 100% | 1009.1 hPa | - | - | - | - |
| 1777343612 | 25.56° C | 100% | 1009.1 hPa | - | - | - | - |
| 1777342408 | 25.56° C | 100% | 1008.8 hPa | - | - | - | - |
| 1777341213 | 25.56° C | 100% | 1008.8 hPa | - | - | - | - |
| 1777340010 | 26.67° C | 100% | 1008.1 hPa | - | - | - | - |
| 1777339528 | 26.67° C | 100% | 1008.1 hPa | - | - | - | - |
| 1777338809 | 26.67° C | 100% | 1007.8 hPa | - | - | - | - |
| 1777334611 | 27.78° C | 94% | 1006.8 hPa | - | - | - | - |
| 1777312406 | 26.67° C | 94% | 1008.1 hPa | - | - | - | - |
| 1777311210 | 25.56° C | 100% | 1008.5 hPa | - | - | - | - |
| 1777310008 | 25° C | 100% | 1008.8 hPa | - | - | - | - |
| 1777309412 | 25° C | 100% | 1008.8 hPa | - | - | - | - |
| 1777306406 | 25° C | 100% | 1008.8 hPa | - | - | - | - |
| 1777304009 | 23.89° C | 100% | 1008.8 hPa | - | - | - | - |
| 1777302811 | 22.78° C | 100% | 1008.8 hPa | - | - | - | - |
| 1777300406 | 22.78° C | 100% | 1009.1 hPa | - | - | - | - |
| 1777299808 | 22.78° C | 100% | 1009.1 hPa | - | - | - | - |
| 1777299215 | 22.78° C | 100% | 1009.5 hPa | - | - | - | - |
* Rain since midnight (hover to see other rain measurements)
** Current wind speed in m/s (hover to see current wind gust speed)